Terminal Aerodrome Forecast
Issued by NWS Duluth, MN

Home | Current Version | Previous Version | Text Only | Print | Product List | Glossary On
Versions: 1 2 3 4 5 6 7 8 9 10 11 12 13 14 15 16 17 18 19 20 21 22 23 24 25 26
062
FTUS43 KDLH 181139
TAFDLH
TAF
KDLH 181139Z 1812/1912 24014KT 5SM BR OVC005
     FM181400 24010KT P6SM SCT250
     FM182200 22005KT P6SM SKC
     FM190200 21004KT 6SM BR SCT040=

USA.gov is the U.S. government's official web portal to all federal, state and local government web resources and services.